sensor_id;sensor_type;location;lat;lon;timestamp;temperature;humidity
7163;DHT22;3623;47.098;15.446;2022-11-18T00:00:08;4.60;99.90
7163;DHT22;3623;47.098;15.446;2022-11-18T00:02:35;4.60;99.90
7163;DHT22;3623;47.098;15.446;2022-11-18T00:05:03;4.60;99.90
7163;DHT22;3623;47.098;15.446;2022-11-18T00:07:31;4.60;99.90
7163;DHT22;3623;47.098;15.446;2022-11-18T00:09:59;4.70;99.90
7163;DHT22;3623;47.098;15.446;2022-11-18T00:12:26;4.70;99.90
7163;DHT22;3623;47.098;15.446;2022-11-18T00:15:10;4.60;99.90
7163;DHT22;3623;47.098;15.446;2022-11-18T00:17:37;4.60;99.90
7163;DHT22;3623;47.098;15.446;2022-11-18T00:20:05;4.60;99.90
7163;DHT22;3623;47.098;15.446;2022-11-18T00:22:32;4.60;99.90
7163;DHT22;3623;47.098;15.446;2022-11-18T00:24:59;4.70;99.90
7163;DHT22;3623;47.098;15.446;2022-11-18T00:27:28;4.90;99.90
7163;DHT22;3623;47.098;15.446;2022-11-18T00:29:56;4.80;99.90
7163;DHT22;3623;47.098;15.446;2022-11-18T00:32:24;4.80;99.90
7163;DHT22;3623;47.098;15.446;2022-11-18T00:34:51;4.90;99.90
7163;DHT22;3623;47.098;15.446;2022-11-18T00:37:18;4.90;99.90
7163;DHT22;3623;47.098;15.446;2022-11-18T00:39:45;4.90;99.90
7163;DHT22;3623;47.098;15.446;2022-11-18T00:42:12;4.90;99.90
7163;DHT22;3623;47.098;15.446;2022-11-18T00:44:57;4.90;99.90
7163;DHT22;3623;47.098;15.446;2022-11-18T00:47:25;5.00;99.90
7163;DHT22;3623;47.098;15.446;2022-11-18T00:49:53;5.00;99.90
7163;DHT22;3623;47.098;15.446;2022-11-18T00:52:20;5.10;99.90
7163;DHT22;3623;47.098;15.446;2022-11-18T00:54:47;5.10;99.90
7163;DHT22;3623;47.098;15.446;2022-11-18T00:57:14;5.10;99.90
7163;DHT22;3623;47.098;15.446;2022-11-18T00:59:41;5.10;99.90
7163;DHT22;3623;47.098;15.446;2022-11-18T01:02:08;5.30;99.90
7163;DHT22;3623;47.098;15.446;2022-11-18T01:04:37;5.10;99.90
7163;DHT22;3623;47.098;15.446;2022-11-18T01:07:04;5.10;99.90
7163;DHT22;3623;47.098;15.446;2022-11-18T01:09:31;5.20;99.90
7163;DHT22;3623;47.098;15.446;2022-11-18T01:11:58;5.20;99.90
7163;DHT22;3623;47.098;15.446;2022-11-18T01:14:43;5.20;99.90
7163;DHT22;3623;47.098;15.446;2022-11-18T01:17:11;5.20;99.90
7163;DHT22;3623;47.098;15.446;2022-11-18T01:19:40;5.20;99.90
7163;DHT22;3623;47.098;15.446;2022-11-18T01:22:07;5.30;99.90
7163;DHT22;3623;47.098;15.446;2022-11-18T01:24:34;5.30;99.90
7163;DHT22;3623;47.098;15.446;2022-11-18T01:27:01;5.30;99.90
7163;DHT22;3623;47.098;15.446;2022-11-18T01:29:28;5.20;99.90
7163;DHT22;3623;47.098;15.446;2022-11-18T01:31:55;5.20;99.90
7163;DHT22;3623;47.098;15.446;2022-11-18T01:34:22;5.20;99.90
7163;DHT22;3623;47.098;15.446;2022-11-18T01:36:52;5.20;99.90
7163;DHT22;3623;47.098;15.446;2022-11-18T01:39:21;5.20;99.90
7163;DHT22;3623;47.098;15.446;2022-11-18T01:41:48;5.20;99.90
7163;DHT22;3623;47.098;15.446;2022-11-18T01:47:20;5.20;99.90
7163;DHT22;3623;47.098;15.446;2022-11-18T01:49:47;5.20;99.90
7163;DHT22;3623;47.098;15.446;2022-11-18T01:52:15;5.20;99.90
7163;DHT22;3623;47.098;15.446;2022-11-18T01:54:47;5.20;99.90
7163;DHT22;3623;47.098;15.446;2022-11-18T01:57:19;5.20;99.90
7163;DHT22;3623;47.098;15.446;2022-11-18T01:59:49;5.30;99.90
7163;DHT22;3623;47.098;15.446;2022-11-18T02:02:20;5.30;99.90
7163;DHT22;3623;47.098;15.446;2022-11-18T02:04:48;5.30;99.90
7163;DHT22;3623;47.098;15.446;2022-11-18T02:07:19;5.30;99.90
7163;DHT22;3623;47.098;15.446;2022-11-18T02:09:47;5.30;99.90
7163;DHT22;3623;47.098;15.446;2022-11-18T02:12:14;5.30;99.90
7163;DHT22;3623;47.098;15.446;2022-11-18T02:14:44;5.30;99.90
7163;DHT22;3623;47.098;15.446;2022-11-18T02:17:19;5.20;99.90
7163;DHT22;3623;47.098;15.446;2022-11-18T02:26:05;5.20;99.90
7163;DHT22;3623;47.098;15.446;2022-11-18T02:28:37;5.20;99.90
7163;DHT22;3623;47.098;15.446;2022-11-18T02:31:13;5.20;99.90
7163;DHT22;3623;47.098;15.446;2022-11-18T02:33:44;5.30;99.90
7163;DHT22;3623;47.098;15.446;2022-11-18T02:36:18;5.30;99.90
7163;DHT22;3623;47.098;15.446;2022-11-18T02:38:51;5.30;99.90
7163;DHT22;3623;47.098;15.446;2022-11-18T02:41:22;5.30;99.90
7163;DHT22;3623;47.098;15.446;2022-11-18T02:43:53;5.30;99.90
7163;DHT22;3623;47.098;15.446;2022-11-18T02:46:27;5.20;99.90
7163;DHT22;3623;47.098;15.446;2022-11-18T02:48:56;5.20;99.90
7163;DHT22;3623;47.098;15.446;2022-11-18T02:51:25;5.20;99.90
7163;DHT22;3623;47.098;15.446;2022-11-18T02:53:55;5.20;99.90
7163;DHT22;3623;47.098;15.446;2022-11-18T02:56:25;5.20;99.90
7163;DHT22;3623;47.098;15.446;2022-11-18T02:58:53;5.30;99.90
7163;DHT22;3623;47.098;15.446;2022-11-18T03:01:23;5.30;99.90
7163;DHT22;3623;47.098;15.446;2022-11-18T03:03:52;5.30;99.90
7163;DHT22;3623;47.098;15.446;2022-11-18T03:06:26;5.10;99.90
7163;DHT22;3623;47.098;15.446;2022-11-18T03:09:02;5.20;99.90
7163;DHT22;3623;47.098;15.446;2022-11-18T03:11:33;5.00;99.90
7163;DHT22;3623;47.098;15.446;2022-11-18T03:14:18;5.00;99.90
7163;DHT22;3623;47.098;15.446;2022-11-18T03:16:55;5.00;99.90
7163;DHT22;3623;47.098;15.446;2022-11-18T03:19:35;5.00;99.90
7163;DHT22;3623;47.098;15.446;2022-11-18T03:22:11;5.00;99.90
7163;DHT22;3623;47.098;15.446;2022-11-18T03:24:44;5.10;99.90
7163;DHT22;3623;47.098;15.446;2022-11-18T03:27:16;5.10;99.90
7163;DHT22;3623;47.098;15.446;2022-11-18T03:29:51;5.10;99.90
7163;DHT22;3623;47.098;15.446;2022-11-18T03:32:24;5.00;99.90
7163;DHT22;3623;47.098;15.446;2022-11-18T03:34:57;5.00;99.90
7163;DHT22;3623;47.098;15.446;2022-11-18T03:37:26;5.00;99.90
7163;DHT22;3623;47.098;15.446;2022-11-18T03:39:58;4.90;99.90
7163;DHT22;3623;47.098;15.446;2022-11-18T03:42:30;4.90;99.90
7163;DHT22;3623;47.098;15.446;2022-11-18T03:45:02;4.90;99.90
7163;DHT22;3623;47.098;15.446;2022-11-18T03:47:32;5.00;99.90
7163;DHT22;3623;47.098;15.446;2022-11-18T03:50:05;5.10;99.90
7163;DHT22;3623;47.098;15.446;2022-11-18T03:52:36;5.00;99.90
7163;DHT22;3623;47.098;15.446;2022-11-18T03:55:08;4.90;99.90
7163;DHT22;3623;47.098;15.446;2022-11-18T03:57:41;4.90;99.90
7163;DHT22;3623;47.098;15.446;2022-11-18T04:00:14;4.80;99.90
7163;DHT22;3623;47.098;15.446;2022-11-18T04:02:43;4.80;99.90
7163;DHT22;3623;47.098;15.446;2022-11-18T04:05:12;4.80;99.90
7163;DHT22;3623;47.098;15.446;2022-11-18T04:07:44;4.80;99.90
7163;DHT22;3623;47.098;15.446;2022-11-18T04:10:17;4.80;99.90
7163;DHT22;3623;47.098;15.446;2022-11-18T04:12:47;4.80;99.90
7163;DHT22;3623;47.098;15.446;2022-11-18T04:15:15;4.80;99.90
7163;DHT22;3623;47.098;15.446;2022-11-18T04:17:44;4.80;99.90
7163;DHT22;3623;47.098;15.446;2022-11-18T04:20:14;4.70;99.90
7163;DHT22;3623;47.098;15.446;2022-11-18T04:22:42;4.70;99.90
7163;DHT22;3623;47.098;15.446;2022-11-18T04:25:10;4.70;99.90
7163;DHT22;3623;47.098;15.446;2022-11-18T04:27:37;4.70;99.90
7163;DHT22;3623;47.098;15.446;2022-11-18T04:30:05;4.70;99.90
7163;DHT22;3623;47.098;15.446;2022-11-18T04:32:33;4.70;99.90
7163;DHT22;3623;47.098;15.446;2022-11-18T04:35:02;4.70;99.90
7163;DHT22;3623;47.098;15.446;2022-11-18T04:37:29;4.70;99.90
7163;DHT22;3623;47.098;15.446;2022-11-18T04:39:56;4.70;99.90
7163;DHT22;3623;47.098;15.446;2022-11-18T04:42:23;4.60;99.90
7163;DHT22;3623;47.098;15.446;2022-11-18T04:44:50;4.60;99.90
7163;DHT22;3623;47.098;15.446;2022-11-18T04:47:17;4.70;99.90
7163;DHT22;3623;47.098;15.446;2022-11-18T04:49:44;4.60;99.90
7163;DHT22;3623;47.098;15.446;2022-11-18T04:52:13;4.60;99.90
7163;DHT22;3623;47.098;15.446;2022-11-18T04:54:40;4.50;99.90
7163;DHT22;3623;47.098;15.446;2022-11-18T04:57:07;4.60;99.90
7163;DHT22;3623;47.098;15.446;2022-11-18T04:59:35;4.50;99.90
7163;DHT22;3623;47.098;15.446;2022-11-18T05:02:02;4.60;99.90
7163;DHT22;3623;47.098;15.446;2022-11-18T05:04:30;4.60;99.90
7163;DHT22;3623;47.098;15.446;2022-11-18T05:06:59;4.50;99.90
7163;DHT22;3623;47.098;15.446;2022-11-18T05:09:27;4.50;99.90
7163;DHT22;3623;47.098;15.446;2022-11-18T05:11:55;4.50;99.90
7163;DHT22;3623;47.098;15.446;2022-11-18T05:14:39;4.50;99.90
7163;DHT22;3623;47.098;15.446;2022-11-18T05:17:07;4.50;99.90
7163;DHT22;3623;47.098;15.446;2022-11-18T05:19:36;4.50;99.90
7163;DHT22;3623;47.098;15.446;2022-11-18T05:22:04;4.60;99.90
7163;DHT22;3623;47.098;15.446;2022-11-18T05:24:33;4.40;99.90
7163;DHT22;3623;47.098;15.446;2022-11-18T05:27:00;4.40;99.90
7163;DHT22;3623;47.098;15.446;2022-11-18T05:29:27;4.60;99.90
7163;DHT22;3623;47.098;15.446;2022-11-18T05:31:54;4.40;99.90
7163;DHT22;3623;47.098;15.446;2022-11-18T05:34:22;4.40;99.90
7163;DHT22;3623;47.098;15.446;2022-11-18T05:36:49;4.50;99.90
7163;DHT22;3623;47.098;15.446;2022-11-18T05:39:16;4.50;99.90
7163;DHT22;3623;47.098;15.446;2022-11-18T05:41:45;4.50;99.90
7163;DHT22;3623;47.098;15.446;2022-11-18T05:44:29;4.50;99.90
7163;DHT22;3623;47.098;15.446;2022-11-18T05:46:56;4.50;99.90
7163;DHT22;3623;47.098;15.446;2022-11-18T05:49:24;4.50;99.90
7163;DHT22;3623;47.098;15.446;2022-11-18T05:51:51;4.60;99.90
7163;DHT22;3623;47.098;15.446;2022-11-18T05:54:19;4.60;99.90
7163;DHT22;3623;47.098;15.446;2022-11-18T05:56:49;4.60;99.90
7163;DHT22;3623;47.098;15.446;2022-11-18T05:59:16;4.60;99.90
7163;DHT22;3623;47.098;15.446;2022-11-18T06:01:45;4.60;99.90
7163;DHT22;3623;47.098;15.446;2022-11-18T06:04:17;4.60;99.90
7163;DHT22;3623;47.098;15.446;2022-11-18T06:06:48;4.60;99.90
7163;DHT22;3623;47.098;15.446;2022-11-18T06:09:18;4.50;99.90
7163;DHT22;3623;47.098;15.446;2022-11-18T06:11:52;4.80;99.90
7163;DHT22;3623;47.098;15.446;2022-11-18T06:14:23;4.50;99.90
7163;DHT22;3623;47.098;15.446;2022-11-18T06:16:55;4.80;99.90
7163;DHT22;3623;47.098;15.446;2022-11-18T06:19:24;4.50;99.90
7163;DHT22;3623;47.098;15.446;2022-11-18T06:21:52;4.50;99.90
7163;DHT22;3623;47.098;15.446;2022-11-18T06:24:20;4.70;99.90
7163;DHT22;3623;47.098;15.446;2022-11-18T06:26:48;4.60;99.90
7163;DHT22;3623;47.098;15.446;2022-11-18T06:29:17;4.60;99.90
7163;DHT22;3623;47.098;15.446;2022-11-18T06:31:45;4.60;99.90
7163;DHT22;3623;47.098;15.446;2022-11-18T06:34:12;4.70;99.90
7163;DHT22;3623;47.098;15.446;2022-11-18T06:36:39;4.70;99.90
7163;DHT22;3623;47.098;15.446;2022-11-18T06:39:07;4.70;99.90
7163;DHT22;3623;47.098;15.446;2022-11-18T06:41:34;4.80;99.90
7163;DHT22;3623;47.098;15.446;2022-11-18T06:44:02;4.80;99.90
7163;DHT22;3623;47.098;15.446;2022-11-18T06:46:28;4.80;99.90
7163;DHT22;3623;47.098;15.446;2022-11-18T06:49:13;4.90;99.90
7163;DHT22;3623;47.098;15.446;2022-11-18T06:51:40;4.90;99.90
7163;DHT22;3623;47.098;15.446;2022-11-18T06:54:07;4.90;99.90
7163;DHT22;3623;47.098;15.446;2022-11-18T06:56:34;4.90;99.90
7163;DHT22;3623;47.098;15.446;2022-11-18T06:59:03;4.90;99.90
7163;DHT22;3623;47.098;15.446;2022-11-18T07:01:33;5.00;99.90
7163;DHT22;3623;47.098;15.446;2022-11-18T07:04:01;5.00;99.90
7163;DHT22;3623;47.098;15.446;2022-11-18T07:06:29;5.00;99.90
7163;DHT22;3623;47.098;15.446;2022-11-18T07:08:59;5.00;99.90
7163;DHT22;3623;47.098;15.446;2022-11-18T07:11:27;5.00;99.90
7163;DHT22;3623;47.098;15.446;2022-11-18T07:13:54;4.90;99.90
7163;DHT22;3623;47.098;15.446;2022-11-18T07:16:24;4.90;99.90
7163;DHT22;3623;47.098;15.446;2022-11-18T07:18:52;5.00;99.90
7163;DHT22;3623;47.098;15.446;2022-11-18T07:21:21;5.00;99.90
7163;DHT22;3623;47.098;15.446;2022-11-18T07:23:48;5.10;99.90
7163;DHT22;3623;47.098;15.446;2022-11-18T07:26:16;5.00;99.90
7163;DHT22;3623;47.098;15.446;2022-11-18T07:28:43;5.10;99.90
7163;DHT22;3623;47.098;15.446;2022-11-18T07:31:13;5.10;99.90
7163;DHT22;3623;47.098;15.446;2022-11-18T07:33:42;5.10;99.90
7163;DHT22;3623;47.098;15.446;2022-11-18T07:36:11;5.20;99.90
7163;DHT22;3623;47.098;15.446;2022-11-18T07:38:39;5.20;99.90
7163;DHT22;3623;47.098;15.446;2022-11-18T07:41:08;5.20;99.90
7163;DHT22;3623;47.098;15.446;2022-11-18T07:43:36;5.20;99.90
7163;DHT22;3623;47.098;15.446;2022-11-18T07:46:12;5.20;99.90
7163;DHT22;3623;47.098;15.446;2022-11-18T07:48:39;5.20;99.90
7163;DHT22;3623;47.098;15.446;2022-11-18T07:51:09;5.30;99.90
7163;DHT22;3623;47.098;15.446;2022-11-18T07:53:36;5.30;99.90
7163;DHT22;3623;47.098;15.446;2022-11-18T07:56:04;5.30;99.90
7163;DHT22;3623;47.098;15.446;2022-11-18T07:58:32;5.40;99.90
7163;DHT22;3623;47.098;15.446;2022-11-18T08:01:05;5.40;99.90
7163;DHT22;3623;47.098;15.446;2022-11-18T08:03:32;5.40;99.90
7163;DHT22;3623;47.098;15.446;2022-11-18T08:06:00;5.40;99.90
7163;DHT22;3623;47.098;15.446;2022-11-18T08:08:29;5.50;99.90
7163;DHT22;3623;47.098;15.446;2022-11-18T08:10:57;5.50;99.90
7163;DHT22;3623;47.098;15.446;2022-11-18T08:13:25;5.50;99.90
7163;DHT22;3623;47.098;15.446;2022-11-18T08:15:52;5.50;99.90
7163;DHT22;3623;47.098;15.446;2022-11-18T08:18:20;5.50;99.90
7163;DHT22;3623;47.098;15.446;2022-11-18T08:20:47;5.50;99.90
7163;DHT22;3623;47.098;15.446;2022-11-18T08:23:15;5.50;99.90
7163;DHT22;3623;47.098;15.446;2022-11-18T08:25:44;5.50;99.90
7163;DHT22;3623;47.098;15.446;2022-11-18T08:28:13;5.50;99.90
7163;DHT22;3623;47.098;15.446;2022-11-18T08:30:40;5.50;99.90
7163;DHT22;3623;47.098;15.446;2022-11-18T08:33:07;5.50;99.90
7163;DHT22;3623;47.098;15.446;2022-11-18T08:35:35;5.50;99.90
7163;DHT22;3623;47.098;15.446;2022-11-18T08:38:02;5.50;99.90
7163;DHT22;3623;47.098;15.446;2022-11-18T08:40:29;5.50;99.90
7163;DHT22;3623;47.098;15.446;2022-11-18T08:42:58;5.50;99.90
7163;DHT22;3623;47.098;15.446;2022-11-18T08:45:25;5.50;99.90
7163;DHT22;3623;47.098;15.446;2022-11-18T08:47:52;5.60;99.90
7163;DHT22;3623;47.098;15.446;2022-11-18T08:50:19;5.70;99.90
7163;DHT22;3623;47.098;15.446;2022-11-18T08:52:46;5.60;99.90
7163;DHT22;3623;47.098;15.446;2022-11-18T08:55:14;5.60;99.90
7163;DHT22;3623;47.098;15.446;2022-11-18T08:57:41;5.60;99.90
7163;DHT22;3623;47.098;15.446;2022-11-18T09:00:11;5.50;99.90
7163;DHT22;3623;47.098;15.446;2022-11-18T09:02:38;5.50;99.90
7163;DHT22;3623;47.098;15.446;2022-11-18T09:05:06;5.50;99.90
7163;DHT22;3623;47.098;15.446;2022-11-18T09:07:33;5.50;99.90
7163;DHT22;3623;47.098;15.446;2022-11-18T09:10:00;5.60;99.90
7163;DHT22;3623;47.098;15.446;2022-11-18T09:12:27;5.60;99.90
7163;DHT22;3623;47.098;15.446;2022-11-18T09:14:54;5.60;99.90
7163;DHT22;3623;47.098;15.446;2022-11-18T09:17:23;5.70;99.90
7163;DHT22;3623;47.098;15.446;2022-11-18T09:19:50;5.80;99.90
7163;DHT22;3623;47.098;15.446;2022-11-18T09:22:17;5.80;99.90
7163;DHT22;3623;47.098;15.446;2022-11-18T09:24:44;5.80;99.90
7163;DHT22;3623;47.098;15.446;2022-11-18T09:27:11;5.80;99.90
7163;DHT22;3623;47.098;15.446;2022-11-18T09:29:38;5.80;99.90
7163;DHT22;3623;47.098;15.446;2022-11-18T09:32:05;5.80;99.90
7163;DHT22;3623;47.098;15.446;2022-11-18T09:34:34;5.80;99.90
7163;DHT22;3623;47.098;15.446;2022-11-18T09:37:02;5.80;99.90
7163;DHT22;3623;47.098;15.446;2022-11-18T09:39:32;5.80;99.90
7163;DHT22;3623;47.098;15.446;2022-11-18T09:42:12;5.80;99.90
7163;DHT22;3623;47.098;15.446;2022-11-18T09:45:04;5.90;99.90
7163;DHT22;3623;47.098;15.446;2022-11-18T09:47:33;5.90;99.90
7163;DHT22;3623;47.098;15.446;2022-11-18T09:50:04;5.90;99.90
7163;DHT22;3623;47.098;15.446;2022-11-18T09:52:38;5.90;99.90
7163;DHT22;3623;47.098;15.446;2022-11-18T09:55:10;6.00;99.90
7163;DHT22;3623;47.098;15.446;2022-11-18T09:57:40;6.00;99.90
7163;DHT22;3623;47.098;15.446;2022-11-18T10:00:13;6.00;99.90
7163;DHT22;3623;47.098;15.446;2022-11-18T10:02:50;6.00;99.90
7163;DHT22;3623;47.098;15.446;2022-11-18T10:05:22;6.00;99.90
7163;DHT22;3623;47.098;15.446;2022-11-18T10:08:03;5.90;99.90
7163;DHT22;3623;47.098;15.446;2022-11-18T10:10:40;5.90;99.90
7163;DHT22;3623;47.098;15.446;2022-11-18T10:13:16;5.90;99.90
7163;DHT22;3623;47.098;15.446;2022-11-18T10:15:54;6.00;99.90
7163;DHT22;3623;47.098;15.446;2022-11-18T10:18:27;5.90;99.90
7163;DHT22;3623;47.098;15.446;2022-11-18T10:21:03;5.90;99.90
7163;DHT22;3623;47.098;15.446;2022-11-18T10:23:44;6.00;99.90
7163;DHT22;3623;47.098;15.446;2022-11-18T10:26:31;5.90;99.90
7163;DHT22;3623;47.098;15.446;2022-11-18T10:28:58;6.00;99.90
7163;DHT22;3623;47.098;15.446;2022-11-18T10:31:25;6.00;99.90
7163;DHT22;3623;47.098;15.446;2022-11-18T10:33:57;6.10;99.90
7163;DHT22;3623;47.098;15.446;2022-11-18T10:36:27;6.10;99.90
7163;DHT22;3623;47.098;15.446;2022-11-18T10:39:12;6.10;99.90
7163;DHT22;3623;47.098;15.446;2022-11-18T10:41:44;6.10;99.90
7163;DHT22;3623;47.098;15.446;2022-11-18T10:44:30;6.10;99.90
7163;DHT22;3623;47.098;15.446;2022-11-18T10:47:15;6.30;99.90
7163;DHT22;3623;47.098;15.446;2022-11-18T10:49:43;6.30;99.90
7163;DHT22;3623;47.098;15.446;2022-11-18T10:52:12;6.40;99.90
7163;DHT22;3623;47.098;15.446;2022-11-18T10:54:40;6.40;99.90
7163;DHT22;3623;47.098;15.446;2022-11-18T10:57:14;6.50;99.90
7163;DHT22;3623;47.098;15.446;2022-11-18T10:59:46;6.50;99.90
7163;DHT22;3623;47.098;15.446;2022-11-18T11:02:17;6.50;99.90
7163;DHT22;3623;47.098;15.446;2022-11-18T11:04:46;6.50;99.90
7163;DHT22;3623;47.098;15.446;2022-11-18T11:07:24;6.50;99.90
7163;DHT22;3623;47.098;15.446;2022-11-18T11:10:17;6.40;99.90
7163;DHT22;3623;47.098;15.446;2022-11-18T11:12:48;6.40;99.90
7163;DHT22;3623;47.098;15.446;2022-11-18T11:15:22;6.50;99.90
7163;DHT22;3623;47.098;15.446;2022-11-18T11:17:55;6.40;99.90
7163;DHT22;3623;47.098;15.446;2022-11-18T11:20:37;6.40;99.90
7163;DHT22;3623;47.098;15.446;2022-11-18T11:23:09;6.50;99.90
7163;DHT22;3623;47.098;15.446;2022-11-18T11:25:42;6.60;99.90
7163;DHT22;3623;47.098;15.446;2022-11-18T11:28:17;6.70;99.90
7163;DHT22;3623;47.098;15.446;2022-11-18T11:30:53;6.70;99.90
7163;DHT22;3623;47.098;15.446;2022-11-18T11:33:31;6.70;99.90
7163;DHT22;3623;47.098;15.446;2022-11-18T11:36:15;6.80;99.90
7163;DHT22;3623;47.098;15.446;2022-11-18T11:38:54;6.90;99.90
7163;DHT22;3623;47.098;15.446;2022-11-18T11:41:25;7.00;99.90
7163;DHT22;3623;47.098;15.446;2022-11-18T11:44:14;7.00;99.90
7163;DHT22;3623;47.098;15.446;2022-11-18T11:46:51;7.00;99.90
7163;DHT22;3623;47.098;15.446;2022-11-18T11:49:48;6.90;99.90
7163;DHT22;3623;47.098;15.446;2022-11-18T11:52:24;7.00;99.90
7163;DHT22;3623;47.098;15.446;2022-11-18T11:55:03;7.00;99.90
7163;DHT22;3623;47.098;15.446;2022-11-18T11:57:41;7.00;99.90
7163;DHT22;3623;47.098;15.446;2022-11-18T12:00:13;7.20;99.90
7163;DHT22;3623;47.098;15.446;2022-11-18T12:02:52;7.10;99.90
7163;DHT22;3623;47.098;15.446;2022-11-18T12:05:25;7.20;99.90
7163;DHT22;3623;47.098;15.446;2022-11-18T12:07:57;7.30;99.90
7163;DHT22;3623;47.098;15.446;2022-11-18T12:10:33;7.30;99.90
7163;DHT22;3623;47.098;15.446;2022-11-18T12:13:14;7.40;99.90
7163;DHT22;3623;47.098;15.446;2022-11-18T12:15:50;7.40;99.90
7163;DHT22;3623;47.098;15.446;2022-11-18T12:18:23;7.40;99.90
7163;DHT22;3623;47.098;15.446;2022-11-18T12:20:53;7.40;99.90
7163;DHT22;3623;47.098;15.446;2022-11-18T12:23:21;7.30;99.90
7163;DHT22;3623;47.098;15.446;2022-11-18T12:25:59;7.20;99.90
7163;DHT22;3623;47.098;15.446;2022-11-18T12:28:29;7.30;99.90
7163;DHT22;3623;47.098;15.446;2022-11-18T12:31:34;7.40;99.90
7163;DHT22;3623;47.098;15.446;2022-11-18T12:34:04;7.40;99.90
7163;DHT22;3623;47.098;15.446;2022-11-18T12:36:34;7.50;99.90
7163;DHT22;3623;47.098;15.446;2022-11-18T12:42:03;7.80;99.90
7163;DHT22;3623;47.098;15.446;2022-11-18T12:44:49;7.80;99.90
7163;DHT22;3623;47.098;15.446;2022-11-18T12:50:47;8.00;99.90
7163;DHT22;3623;47.098;15.446;2022-11-18T12:53:32;8.30;99.90
7163;DHT22;3623;47.098;15.446;2022-11-18T12:56:10;8.40;99.90
7163;DHT22;3623;47.098;15.446;2022-11-18T12:58:43;8.50;99.90
7163;DHT22;3623;47.098;15.446;2022-11-18T13:01:12;8.60;99.90
7163;DHT22;3623;47.098;15.446;2022-11-18T13:03:40;8.80;99.90
7163;DHT22;3623;47.098;15.446;2022-11-18T13:06:21;8.80;99.90
7163;DHT22;3623;47.098;15.446;2022-11-18T13:08:51;8.80;99.90
7163;DHT22;3623;47.098;15.446;2022-11-18T13:11:19;8.70;99.90
7163;DHT22;3623;47.098;15.446;2022-11-18T13:14:11;8.60;99.90
7163;DHT22;3623;47.098;15.446;2022-11-18T13:16:57;8.60;99.90
7163;DHT22;3623;47.098;15.446;2022-11-18T13:19:42;8.50;99.90
7163;DHT22;3623;47.098;15.446;2022-11-18T13:22:16;8.50;99.90
7163;DHT22;3623;47.098;15.446;2022-11-18T13:25:00;8.40;99.90
7163;DHT22;3623;47.098;15.446;2022-11-18T13:27:35;8.40;99.90
7163;DHT22;3623;47.098;15.446;2022-11-18T13:30:09;8.40;99.90
7163;DHT22;3623;47.098;15.446;2022-11-18T13:32:41;8.30;99.90
7163;DHT22;3623;47.098;15.446;2022-11-18T13:35:12;8.20;99.90
7163;DHT22;3623;47.098;15.446;2022-11-18T13:37:48;8.20;99.90
7163;DHT22;3623;47.098;15.446;2022-11-18T13:40:22;8.10;99.90
7163;DHT22;3623;47.098;15.446;2022-11-18T13:42:49;8.00;99.90
7163;DHT22;3623;47.098;15.446;2022-11-18T13:45:19;8.00;99.90
7163;DHT22;3623;47.098;15.446;2022-11-18T13:47:50;7.90;99.90
7163;DHT22;3623;47.098;15.446;2022-11-18T13:50:22;7.80;99.90
7163;DHT22;3623;47.098;15.446;2022-11-18T13:52:59;7.70;99.90
7163;DHT22;3623;47.098;15.446;2022-11-18T13:55:32;7.70;99.90
7163;DHT22;3623;47.098;15.446;2022-11-18T13:58:02;7.70;99.90
7163;DHT22;3623;47.098;15.446;2022-11-18T14:00:34;7.70;99.90
7163;DHT22;3623;47.098;15.446;2022-11-18T14:03:03;7.60;99.90
7163;DHT22;3623;47.098;15.446;2022-11-18T14:05:31;7.60;99.90
7163;DHT22;3623;47.098;15.446;2022-11-18T14:08:01;7.60;99.90
7163;DHT22;3623;47.098;15.446;2022-11-18T14:10:31;7.50;99.90
7163;DHT22;3623;47.098;15.446;2022-11-18T14:13:00;7.50;99.90
7163;DHT22;3623;47.098;15.446;2022-11-18T14:15:36;7.40;99.90
7163;DHT22;3623;47.098;15.446;2022-11-18T14:18:17;7.40;99.90
7163;DHT22;3623;47.098;15.446;2022-11-18T14:20:50;7.40;99.90
7163;DHT22;3623;47.098;15.446;2022-11-18T14:23:19;7.30;99.90
7163;DHT22;3623;47.098;15.446;2022-11-18T14:25:47;7.40;99.90
7163;DHT22;3623;47.098;15.446;2022-11-18T14:28:20;7.40;99.90
7163;DHT22;3623;47.098;15.446;2022-11-18T14:31:02;7.30;99.90
7163;DHT22;3623;47.098;15.446;2022-11-18T14:33:33;7.30;99.90
7163;DHT22;3623;47.098;15.446;2022-11-18T14:36:07;7.30;99.90
7163;DHT22;3623;47.098;15.446;2022-11-18T14:38:43;7.30;99.90
7163;DHT22;3623;47.098;15.446;2022-11-18T14:41:12;7.20;99.90
7163;DHT22;3623;47.098;15.446;2022-11-18T14:43:40;7.20;99.90
7163;DHT22;3623;47.098;15.446;2022-11-18T14:46:14;7.20;99.90
7163;DHT22;3623;47.098;15.446;2022-11-18T14:48:42;7.20;99.90
7163;DHT22;3623;47.098;15.446;2022-11-18T14:51:11;7.20;99.90
7163;DHT22;3623;47.098;15.446;2022-11-18T14:53:39;7.20;99.90
7163;DHT22;3623;47.098;15.446;2022-11-18T14:56:11;7.10;99.90
7163;DHT22;3623;47.098;15.446;2022-11-18T14:58:39;7.10;99.90
7163;DHT22;3623;47.098;15.446;2022-11-18T15:01:10;7.10;99.90
7163;DHT22;3623;47.098;15.446;2022-11-18T15:03:38;7.10;99.90
7163;DHT22;3623;47.098;15.446;2022-11-18T15:06:11;7.10;99.90
7163;DHT22;3623;47.098;15.446;2022-11-18T15:08:38;7.10;99.90
7163;DHT22;3623;47.098;15.446;2022-11-18T15:11:06;7.00;99.90
7163;DHT22;3623;47.098;15.446;2022-11-18T15:13:33;7.10;99.90
7163;DHT22;3623;47.098;15.446;2022-11-18T15:16:01;7.00;99.90
7163;DHT22;3623;47.098;15.446;2022-11-18T15:18:29;7.00;99.90
7163;DHT22;3623;47.098;15.446;2022-11-18T15:20:56;7.00;99.90
7163;DHT22;3623;47.098;15.446;2022-11-18T15:23:23;7.00;99.90
7163;DHT22;3623;47.098;15.446;2022-11-18T15:25:50;7.00;99.90
7163;DHT22;3623;47.098;15.446;2022-11-18T15:28:17;7.00;99.90
7163;DHT22;3623;47.098;15.446;2022-11-18T15:30:44;7.00;99.90
7163;DHT22;3623;47.098;15.446;2022-11-18T15:33:11;7.00;99.90
7163;DHT22;3623;47.098;15.446;2022-11-18T15:35:40;7.00;99.90
7163;DHT22;3623;47.098;15.446;2022-11-18T15:38:09;7.00;99.90
7163;DHT22;3623;47.098;15.446;2022-11-18T15:40:36;7.00;99.90
7163;DHT22;3623;47.098;15.446;2022-11-18T15:43:04;7.00;99.90
7163;DHT22;3623;47.098;15.446;2022-11-18T15:45:31;7.00;99.90
7163;DHT22;3623;47.098;15.446;2022-11-18T15:47:58;7.00;99.90
7163;DHT22;3623;47.098;15.446;2022-11-18T15:50:25;7.00;99.90
7163;DHT22;3623;47.098;15.446;2022-11-18T15:52:53;7.00;99.90
7163;DHT22;3623;47.098;15.446;2022-11-18T15:55:20;7.00;99.90
7163;DHT22;3623;47.098;15.446;2022-11-18T15:57:47;7.00;99.90
7163;DHT22;3623;47.098;15.446;2022-11-18T16:00:15;7.00;99.90
7163;DHT22;3623;47.098;15.446;2022-11-18T16:02:42;7.10;99.90
7163;DHT22;3623;47.098;15.446;2022-11-18T16:05:09;7.10;99.90
7163;DHT22;3623;47.098;15.446;2022-11-18T16:07:36;7.00;99.90
7163;DHT22;3623;47.098;15.446;2022-11-18T16:10:07;6.90;99.90
7163;DHT22;3623;47.098;15.446;2022-11-18T16:12:52;6.90;99.90
7163;DHT22;3623;47.098;15.446;2022-11-18T16:15:19;6.90;99.90
7163;DHT22;3623;47.098;15.446;2022-11-18T16:18:04;6.90;99.90
7163;DHT22;3623;47.098;15.446;2022-11-18T16:20:31;6.80;99.90
7163;DHT22;3623;47.098;15.446;2022-11-18T16:22:59;6.80;99.90
7163;DHT22;3623;47.098;15.446;2022-11-18T16:25:27;6.70;99.90
7163;DHT22;3623;47.098;15.446;2022-11-18T16:27:54;6.70;99.90
7163;DHT22;3623;47.098;15.446;2022-11-18T16:30:21;6.60;99.90
7163;DHT22;3623;47.098;15.446;2022-11-18T16:33:06;6.70;99.90
7163;DHT22;3623;47.098;15.446;2022-11-18T16:35:33;6.70;99.90
7163;DHT22;3623;47.098;15.446;2022-11-18T16:38:00;6.70;99.90
7163;DHT22;3623;47.098;15.446;2022-11-18T16:40:28;6.70;99.90